Time;durP1;ratioP1;P1;durP2;ratioP2;P2;SDS_P1;SDS_P2;PMS_P1;PMS_P2;Temp;Humidity;BMP_temperature;BMP_pressure;BME280_temperature;BME280_humidity;BME280_pressure;Samples;Min_cycle;Max_cycle;Signal;HPM_P1;HPM_P2
2023/07/24 00:00:29;;;;;;;2.58;1.55;;;;;;;18.06;100.00;97713.25;4174106;28;20416;-72
2023/07/24 00:02:29;;;;;;;2.53;1.42;;;;;;;18.07;100.00;97718.41;4174694;28;20484;-72
2023/07/24 00:04:31;;;;;;;1.88;1.45;;;;;;;18.06;100.00;97702.06;4174591;28;20048;-72
2023/07/24 00:06:31;;;;;;;3.08;1.70;;;;;;;18.03;100.00;97706.50;4175175;28;20052;-72
2023/07/24 00:08:31;;;;;;;5.72;1.75;;;;;;;18.03;100.00;97706.50;4175382;28;20036;-72
2023/07/24 00:10:32;;;;;;;2.40;1.50;;;;;;;18.02;100.00;97704.94;4175110;28;20057;-72
2023/07/24 00:12:32;;;;;;;4.03;1.33;;;;;;;18.03;100.00;97688.94;4174516;28;20029;-72
2023/07/24 00:14:33;;;;;;;3.05;1.70;;;;;;;18.01;100.00;97692.19;4175309;28;20053;-72
2023/07/24 00:28:20;;;;;;;4.28;1.63;;;;;;;17.73;100.00;97688.25;4174581;28;20055;-72
2023/07/24 00:30:20;;;;;;;3.35;1.70;;;;;;;17.71;100.00;97673.94;4174909;28;20127;-72
2023/07/24 00:32:20;;;;;;;3.88;1.90;;;;;;;17.69;100.00;97663.13;4174468;28;20112;-71
2023/07/24 00:34:21;;;;;;;2.67;1.70;;;;;;;17.75;100.00;97660.59;4174562;28;20048;-72
2023/07/24 00:36:21;;;;;;;4.68;2.13;;;;;;;17.75;100.00;97666.19;4174055;28;20436;-71
2023/07/24 00:38:21;;;;;;;4.25;2.17;;;;;;;17.77;100.00;97672.13;4174493;28;20082;-72
2023/07/24 00:40:22;;;;;;;3.35;2.03;;;;;;;17.78;100.00;97670.88;4174751;28;20053;-72
2023/07/24 00:42:22;;;;;;;4.57;1.80;;;;;;;17.78;100.00;97678.50;4174731;28;20412;-72
2023/07/24 00:44:23;;;;;;;3.42;1.88;;;;;;;17.75;100.00;97685.78;4174349;28;20044;-72
2023/07/24 00:46:24;;;;;;;7.32;2.15;;;;;;;17.76;100.00;97681.75;4174884;28;20484;-72
2023/07/24 00:48:24;;;;;;;3.78;2.10;;;;;;;17.74;100.00;97678.63;4174509;28;20040;-72
2023/07/24 00:50:25;;;;;;;3.72;2.08;;;;;;;17.74;100.00;97667.44;4174430;28;20501;-72
2023/07/24 00:52:25;;;;;;;2.60;2.00;;;;;;;17.75;100.00;97671.00;4174271;28;20033;-72
2023/07/24 00:54:28;;;;;;;3.25;1.75;;;;;;;17.71;100.00;97671.13;4174626;28;20393;-72
2023/07/24 00:56:31;;;;;;;2.70;1.75;;;;;;;17.67;100.00;97664.81;4174364;28;20044;-72
2023/07/24 00:58:33;;;;;;;6.70;1.90;;;;;;;17.64;100.00;97658.09;4174500;28;20032;-71
2023/07/24 01:00:33;;;;;;;3.05;1.70;;;;;;;17.64;100.00;97662.91;4174943;28;20413;-72
2023/07/24 01:02:34;;;;;;;2.83;1.88;;;;;;;17.58;100.00;97671.06;4173198;28;20037;-72
2023/07/24 01:04:35;;;;;;;4.35;2.10;;;;;;;17.54;100.00;97672.38;4173824;28;21005;-72
2023/07/24 01:06:35;;;;;;;3.05;1.80;;;;;;;17.54;100.00;97666.78;4173028;28;20045;-71
2023/07/24 01:08:36;;;;;;;3.72;1.70;;;;;;;17.56;100.00;97669.94;4174445;28;20041;-72
2023/07/24 01:10:36;;;;;;;2.50;1.90;;;;;;;17.51;100.00;97667.69;4174326;28;20075;-72
2023/07/24 01:12:36;;;;;;;2.92;2.15;;;;;;;17.51;100.00;97667.69;4173727;28;20041;-72
2023/07/24 01:14:47;;;;;;;3.08;1.83;;;;;;;17.49;100.00;97670.16;4174497;28;20246;-71
2023/07/24 01:16:48;;;;;;;3.30;1.98;;;;;;;17.47;100.00;97667.81;4173616;28;20099;-72
2023/07/24 01:18:51;;;;;;;4.03;2.05;;;;;;;17.41;100.00;97666.78;4173944;28;20044;-71
2023/07/24 01:20:56;;;;;;;2.60;1.83;;;;;;;17.35;100.00;97674.13;4173744;28;20462;-71
2023/07/24 01:23:27;;;;;;;3.03;2.03;;;;;;;17.35;100.00;97674.13;4173535;28;20456;-71
2023/07/24 01:25:36;;;;;;;6.18;1.70;;;;;;;17.32;100.00;97670.22;4173364;28;20040;-71
2023/07/24 01:27:44;;;;;;;4.15;2.05;;;;;;;17.34;100.00;97692.13;4173924;28;20102;-71
2023/07/24 01:29:44;;;;;;;3.00;1.90;;;;;;;17.34;100.00;97678.16;4173283;28;20489;-71
2023/07/24 01:31:44;;;;;;;2.40;1.73;;;;;;;17.31;100.00;97682.63;4173833;28;20102;-71
2023/07/24 01:33:45;;;;;;;3.13;2.00;;;;;;;17.27;100.00;97675.56;4173278;28;20136;-71
2023/07/24 01:35:50;;;;;;;4.82;1.83;;;;;;;17.24;100.00;97670.84;4173245;28;20090;-71
2023/07/24 01:37:51;;;;;;;3.30;2.33;;;;;;;17.24;100.00;97670.84;4173886;28;20127;-71
2023/07/24 01:39:53;;;;;;;4.50;2.70;;;;;;;17.29;100.00;97673.88;4173995;28;20143;-71
2023/07/24 01:41:53;;;;;;;3.58;1.92;;;;;;;17.34;100.00;97673.34;4173926;28;20094;-71
2023/07/24 01:43:53;;;;;;;2.53;1.75;;;;;;;17.39;100.00;97661.63;4173078;28;20049;-71
2023/07/24 01:45:55;;;;;;;4.68;1.98;;;;;;;17.46;100.00;97665.41;4172041;28;20044;-71
2023/07/24 01:47:55;;;;;;;3.58;2.38;;;;;;;17.49;100.00;97662.53;4173784;28;20476;-71
2023/07/24 01:49:56;;;;;;;3.05;1.92;;;;;;;17.51;100.00;97670.47;4172950;28;20417;-71
2023/07/24 01:51:57;;;;;;;3.28;2.20;;;;;;;17.48;100.00;97669.38;4173143;28;20037;-71
2023/07/24 01:53:57;;;;;;;4.55;2.28;;;;;;;17.48;100.00;97671.38;4172841;28;20851;-71
2023/07/24 01:55:58;;;;;;;4.15;2.17;;;;;;;17.44;100.00;97662.28;4172596;28;20040;-71
2023/07/24 01:57:58;;;;;;;2.70;1.90;;;;;;;17.41;100.00;97666.78;4173720;28;20389;-72
2023/07/24 01:59:59;;;;;;;2.92;2.10;;;;;;;17.39;100.00;97658.03;4172947;28;20041;-71
2023/07/24 02:01:59;;;;;;;3.50;2.00;;;;;;;17.38;100.00;97654.47;4173985;28;20099;-71
2023/07/24 02:04:00;;;;;;;3.03;2.17;;;;;;;17.32;100.00;97650.63;4172608;28;20084;-71
2023/07/24 02:06:00;;;;;;;5.22;2.22;;;;;;;17.28;100.00;97641.56;4171548;28;20049;-71
2023/07/24 02:08:00;;;;;;;4.78;2.30;;;;;;;17.26;100.00;97649.59;4173170;28;20128;-72
2023/07/24 02:10:01;;;;;;;6.90;2.40;;;;;;;17.23;100.00;97647.72;4172184;28;20439;-72
2023/07/24 02:12:02;;;;;;;3.45;2.15;;;;;;;17.25;100.00;97645.25;4172621;28;20029;-72
2023/07/24 02:14:02;;;;;;;3.58;2.42;;;;;;;17.27;100.00;97644.81;4172052;28;20688;-72
2023/07/24 02:16:03;;;;;;;4.95;2.53;;;;;;;17.34;100.00;97639.78;4173054;28;20029;-72
2023/07/24 02:18:04;;;;;;;4.88;2.40;;;;;;;17.42;100.00;97641.16;4173341;28;20037;-72
2023/07/24 02:20:05;;;;;;;5.13;2.20;;;;;;;17.52;100.00;97639.28;4172897;28;20438;-71
2023/07/24 02:22:05;;;;;;;9.98;2.67;;;;;;;17.60;100.00;97637.03;4172081;28;20036;-72
2023/07/24 02:24:05;;;;;;;5.47;2.22;;;;;;;17.64;100.00;97635.72;4172307;28;20457;-72
2023/07/24 02:26:06;;;;;;;3.10;2.35;;;;;;;17.68;99.47;97632.81;4172949;28;20058;-72
2023/07/24 02:28:06;;;;;;;3.85;2.25;;;;;;;17.76;98.55;97634.19;4173440;28;20213;-72
2023/07/24 02:30:07;;;;;;;4.38;2.50;;;;;;;17.83;98.30;97624.78;4172862;28;20449;-72
2023/07/24 02:32:07;;;;;;;4.00;2.33;;;;;;;17.90;97.91;97625.34;4173046;28;20025;-72
2023/07/24 02:34:08;;;;;;;4.28;2.40;;;;;;;17.98;97.35;97625.13;4172406;28;20037;-72
2023/07/24 02:36:08;;;;;;;4.90;2.38;;;;;;;18.06;96.77;97620.88;4172823;28;20059;-71
2023/07/24 02:38:08;;;;;;;5.00;2.53;;;;;;;18.12;96.40;97628.28;4173017;28;20044;-71
2023/07/24 02:40:09;;;;;;;3.63;2.22;;;;;;;18.18;95.90;97622.88;4172920;28;20472;-71
2023/07/24 02:42:10;;;;;;;3.83;2.40;;;;;;;18.23;95.29;97623.09;4173253;28;20148;-71
2023/07/24 02:44:10;;;;;;;3.92;2.38;;;;;;;18.27;94.75;97617.38;4171970;28;20036;-71
2023/07/24 02:46:10;;;;;;;4.43;2.45;;;;;;;18.30;94.11;97619.28;4172797;28;20480;-72
2023/07/24 02:48:11;;;;;;;4.50;2.75;;;;;;;18.33;93.97;97612.78;4173218;28;20236;-71
2023/07/24 02:50:11;;;;;;;5.28;2.38;;;;;;;18.36;93.55;97611.09;4172852;28;20191;-71
2023/07/24 02:52:11;;;;;;;3.63;2.15;;;;;;;18.32;93.54;97616.81;4172811;28;20095;-71
2023/07/24 02:54:11;;;;;;;2.92;2.20;;;;;;;18.35;93.45;97610.31;4172840;28;20043;-72
2023/07/24 02:56:12;;;;;;;4.10;2.67;;;;;;;18.35;93.20;97607.50;4172823;28;20075;-72
2023/07/24 02:58:13;;;;;;;7.18;2.70;;;;;;;18.31;93.60;97609.66;4172542;28;20506;-71
2023/07/24 03:00:14;;;;;;;3.25;2.30;;;;;;;18.29;93.86;97614.94;4173140;28;20518;-72
2023/07/24 03:02:14;;;;;;;3.78;2.60;;;;;;;18.25;94.04;97609.44;4174673;28;20033;-71
2023/07/24 03:04:14;;;;;;;3.60;2.42;;;;;;;18.23;93.48;97608.31;4175164;28;20086;-71
2023/07/24 03:06:15;;;;;;;3.20;2.40;;;;;;;18.21;93.55;97619.19;4175993;28;20024;-72
2023/07/24 03:08:15;;;;;;;3.60;2.25;;;;;;;18.16;93.89;97622.53;4176738;28;20041;-71
2023/07/24 03:10:16;;;;;;;5.85;2.80;;;;;;;18.12;94.27;97616.25;4176239;28;20060;-71
2023/07/24 03:12:16;;;;;;;5.03;2.65;;;;;;;18.07;94.24;97614.81;4175054;28;20440;-71
2023/07/24 03:14:16;;;;;;;4.32;2.70;;;;;;;18.01;94.18;97605.41;4175597;28;20035;-71
2023/07/24 03:16:19;;;;;;;4.13;2.70;;;;;;;18.03;94.30;97611.34;4175882;28;20036;-71
2023/07/24 03:18:20;;;;;;;4.32;2.75;;;;;;;18.02;94.53;97609.00;4175897;28;20493;-71
2023/07/24 03:20:20;;;;;;;4.30;2.38;;;;;;;18.06;94.33;97602.06;4175950;28;20037;-71
2023/07/24 03:22:21;;;;;;;4.05;2.60;;;;;;;18.09;94.10;97598.38;4175097;28;20080;-71
2023/07/24 03:24:21;;;;;;;4.28;2.60;;;;;;;18.07;94.08;97598.03;4175190;28;20029;-71
2023/07/24 03:26:22;;;;;;;3.58;2.55;;;;;;;18.08;94.35;97602.41;4175025;28;20098;-71
2023/07/24 03:28:22;;;;;;;2.92;2.40;;;;;;;18.09;94.04;97608.78;4175741;28;20044;-71
2023/07/24 03:30:22;;;;;;;4.18;2.08;;;;;;;18.09;94.17;97603.19;4176364;28;20040;-71
2023/07/24 03:32:23;;;;;;;4.65;3.03;;;;;;;18.09;94.16;97608.78;4174841;28;20416;-72
2023/07/24 03:34:23;;;;;;;3.47;2.38;;;;;;;18.07;94.15;97602.84;4175387;28;20484;-71
2023/07/24 03:36:23;;;;;;;3.58;2.25;;;;;;;18.07;94.33;97598.03;4175581;28;20029;-72
2023/07/24 03:38:23;;;;;;;2.80;2.30;;;;;;;18.08;94.17;97604.41;4174782;28;20388;-71
2023/07/24 03:40:24;;;;;;;3.78;2.10;;;;;;;18.07;94.20;97603.63;4175527;28;20040;-72
2023/07/24 03:42:29;;;;;;;4.57;2.38;;;;;;;18.04;94.43;97598.94;4174680;28;20053;-71
2023/07/24 03:44:30;;;;;;;4.72;2.45;;;;;;;18.02;94.54;97597.81;4175629;28;20053;-71
2023/07/24 03:46:32;;;;;;;3.78;2.33;;;;;;;18.00;94.24;97603.06;4175314;28;20440;-71
2023/07/24 03:48:32;;;;;;;7.85;2.63;;;;;;;18.00;94.76;97589.88;4175568;28;20052;-72
2023/07/24 03:50:32;;;;;;;4.38;2.30;;;;;;;18.00;94.46;97592.66;4175637;28;20064;-71
2023/07/24 03:52:33;;;;;;;4.38;2.80;;;;;;;18.01;95.06;97585.06;4174345;28;20443;-71
2023/07/24 03:54:33;;;;;;;4.00;2.15;;;;;;;18.07;94.70;97597.25;4175448;28;20037;-71
2023/07/24 03:56:33;;;;;;;7.05;2.60;;;;;;;18.10;94.62;97594.31;4175172;28;20045;-71
2023/07/24 03:58:33;;;;;;;4.15;2.45;;;;;;;18.09;94.35;97589.19;4175502;28;20245;-71
2023/07/24 04:00:34;;;;;;;4.68;2.15;;;;;;;18.09;94.27;97575.97;4175439;28;20122;-71
2023/07/24 04:02:34;;;;;;;4.78;2.53;;;;;;;18.14;94.19;97569.81;4174176;28;20037;-71
2023/07/24 04:04:35;;;;;;;3.97;2.60;;;;;;;18.13;93.61;97567.47;4175701;28;20072;-71
2023/07/24 04:06:35;;;;;;;3.35;2.22;;;;;;;18.10;93.40;97565.56;4175253;28;20114;-71
2023/07/24 04:08:35;;;;;;;3.70;2.47;;;;;;;18.07;93.53;97567.25;4175128;28;20110;-72
2023/07/24 04:10:36;;;;;;;4.97;2.45;;;;;;;18.06;93.87;97562.09;4175496;28;20556;-71
2023/07/24 04:12:36;;;;;;;3.53;2.40;;;;;;;18.03;93.94;97552.56;4174157;28;20127;-71
2023/07/24 04:14:36;;;;;;;4.90;2.42;;;;;;;18.00;94.27;97555.50;4174189;28;20036;-71
2023/07/24 04:16:37;;;;;;;3.17;2.05;;;;;;;17.95;94.76;97559.63;4175441;28;20060;-71
2023/07/24 04:18:37;;;;;;;5.03;2.63;;;;;;;17.92;94.64;97555.72;4174818;28;20052;-71
2023/07/24 04:20:37;;;;;;;3.63;2.33;;;;;;;17.90;95.04;97547.00;4175057;28;20033;-71
2023/07/24 04:22:38;;;;;;;4.32;2.47;;;;;;;17.90;95.20;97546.22;4173555;28;20393;-71
2023/07/24 04:24:38;;;;;;;5.28;2.53;;;;;;;17.88;94.96;97541.09;4174947;28;20037;-71
2023/07/24 04:26:39;;;;;;;3.65;2.72;;;;;;;17.87;95.04;97547.91;4174795;28;20053;-71
2023/07/24 04:28:39;;;;;;;6.00;2.60;;;;;;;17.89;95.25;97556.63;4174804;28;20412;-71
2023/07/24 04:30:40;;;;;;;5.93;2.38;;;;;;;17.91;96.49;97567.38;4172550;28;20048;-71
2023/07/24 04:32:40;;;;;;;3.38;2.10;;;;;;;17.90;96.52;97569.41;4173862;28;20063;-71
2023/07/24 04:34:40;;;;;;;4.50;2.58;;;;;;;17.88;96.28;97569.06;4174842;28;20061;-71
2023/07/24 04:36:41;;;;;;;5.88;2.70;;;;;;;17.87;96.10;97584.28;4173774;28;20057;-71
2023/07/24 04:38:41;;;;;;;6.97;2.60;;;;;;;17.88;95.61;97580.25;4174258;28;20133;-71
2023/07/24 04:40:44;;;;;;;10.15;2.75;;;;;;;17.87;96.87;97584.28;4172494;28;20510;-71
2023/07/24 04:42:45;;;;;;;15.38;3.75;;;;;;;17.84;96.94;97579.56;4172815;28;20083;-71
2023/07/24 04:44:45;;;;;;;9.27;3.15;;;;;;;17.81;96.80;97582.50;4173695;28;20049;-71
2023/07/24 04:46:46;;;;;;;12.52;3.10;;;;;;;17.81;96.82;97580.47;4171726;28;20520;-72
2023/07/24 04:48:46;;;;;;;12.93;3.80;;;;;;;17.79;97.00;97574.56;4172091;28;20678;-72
2023/07/24 04:50:46;;;;;;;13.68;4.30;;;;;;;17.76;96.98;97564.25;4171890;28;20044;-71
2023/07/24 04:52:46;;;;;;;9.98;2.83;;;;;;;17.80;98.02;97567.72;4173313;28;20118;-71
2023/07/24 04:54:47;;;;;;;5.15;3.00;;;;;;;17.85;97.78;97569.16;4173291;28;20052;-71
2023/07/24 04:56:47;;;;;;;10.25;2.85;;;;;;;17.87;97.31;97564.72;4174474;28;20056;-71
2023/07/24 04:58:47;;;;;;;4.07;2.50;;;;;;;17.96;96.98;97555.63;4174094;28;20053;-71
2023/07/24 05:00:48;;;;;;;6.70;3.00;;;;;;;18.07;95.59;97552.47;4174350;28;20051;-71
2023/07/24 05:02:48;;;;;;;9.30;2.83;;;;;;;18.25;94.25;97555.44;4173710;28;20136;-72
2023/07/24 05:04:48;;;;;;;8.05;3.08;;;;;;;18.38;93.47;97555.44;4173683;28;20037;-71
2023/07/24 05:06:53;;;;;;;7.30;2.60;;;;;;;18.45;92.28;97538.34;4171572;28;20048;-71
2023/07/24 05:08:54;;;;;;;4.47;2.65;;;;;;;18.65;91.66;97526.88;4173613;28;20497;-71
2023/07/24 05:10:58;;;;;;;7.65;3.10;;;;;;;18.75;91.08;97529.31;4173963;28;20075;-71
2023/07/24 05:13:00;;;;;;;6.75;2.90;;;;;;;18.87;90.54;97536.09;4173088;28;20115;-72
2023/07/24 05:15:01;;;;;;;5.30;2.58;;;;;;;19.00;90.55;97541.63;4173559;28;20083;-71
2023/07/24 05:17:01;;;;;;;6.90;3.08;;;;;;;19.13;88.78;97538.75;4173906;28;20389;-71
2023/07/24 05:19:02;;;;;;;5.88;2.58;;;;;;;19.23;88.28;97538.34;4172959;28;20276;-71
2023/07/24 05:21:02;;;;;;;7.65;3.03;;;;;;;19.33;88.29;97530.75;4122356;28;20044;-71
2023/07/24 05:23:02;;;;;;;8.35;2.88;;;;;;;19.34;87.38;97526.72;4179532;28;20040;-71
2023/07/24 05:25:03;;;;;;;4.97;2.70;;;;;;;19.31;87.68;97536.84;4173458;28;20492;-71
2023/07/24 05:27:05;;;;;;;6.18;2.75;;;;;;;19.33;87.55;97523.13;4174253;28;20048;-71
2023/07/24 05:29:05;;;;;;;5.57;2.85;;;;;;;19.43;87.38;97517.56;4173894;28;20059;-71
2023/07/24 05:31:06;;;;;;;5.80;2.88;;;;;;;19.49;86.98;97522.09;4172399;28;20071;-71
2023/07/24 05:33:06;;;;;;;4.70;2.70;;;;;;;19.57;86.75;97522.63;4171425;28;20091;-71
2023/07/24 05:35:07;;;;;;;7.07;2.95;;;;;;;19.63;86.09;97524.38;4170839;28;20107;-71
2023/07/24 05:37:07;;;;;;;5.78;2.88;;;;;;;19.71;86.58;97518.50;4172828;28;20418;-71
2023/07/24 05:39:07;;;;;;;7.22;3.10;;;;;;;19.72;86.05;97512.41;4171774;28;20041;-71
2023/07/24 05:41:08;;;;;;;4.15;2.55;;;;;;;19.83;86.13;97514.78;4172526;28;20043;-71
2023/07/24 05:43:08;;;;;;;7.95;3.20;;;;;;;19.76;85.59;97507.41;4171902;28;20068;-71
2023/07/24 05:45:10;;;;;;;5.95;3.20;;;;;;;19.74;86.09;97511.94;4171658;28;20075;-71
2023/07/24 05:47:11;;;;;;;6.80;3.45;;;;;;;19.76;85.51;97510.22;4172171;28;20790;-71
2023/07/24 05:49:11;;;;;;;6.05;2.78;;;;;;;19.85;85.14;97499.03;4171229;28;20345;-71
2023/07/24 05:51:11;;;;;;;3.65;2.70;;;;;;;19.96;85.48;97501.41;4173688;28;20266;-71
2023/07/24 05:53:11;;;;;;;5.35;3.17;;;;;;;20.01;85.12;97495.16;4172663;28;20466;-71
2023/07/24 05:55:12;;;;;;;6.10;3.03;;;;;;;20.02;84.24;97502.34;4174002;28;20056;-71
2023/07/24 05:57:12;;;;;;;5.05;3.13;;;;;;;20.11;85.08;97498.78;4172969;28;20041;-71
2023/07/24 05:59:13;;;;;;;5.22;2.83;;;;;;;20.12;84.24;97503.16;4173604;28;20047;-71
2023/07/24 06:01:13;;;;;;;6.38;3.08;;;;;;;20.22;85.00;97515.97;4173616;28;20045;-71
2023/07/24 06:03:14;;;;;;;5.15;3.03;;;;;;;20.23;83.18;97505.50;4172142;28;20045;-71
2023/07/24 06:05:14;;;;;;;4.88;2.97;;;;;;;20.17;83.50;97503.31;4172800;28;20057;-71
2023/07/24 06:07:14;;;;;;;6.40;3.60;;;;;;;20.15;85.23;97502.22;4173280;28;20057;-72
2023/07/24 06:09:15;;;;;;;5.35;2.72;;;;;;;20.10;84.01;97506.41;4173227;28;20496;-71
2023/07/24 06:11:15;;;;;;;4.60;3.10;;;;;;;20.17;85.34;97497.69;4173264;28;20077;-71
2023/07/24 06:13:16;;;;;;;7.88;3.35;;;;;;;20.27;84.68;97506.13;4171808;28;20062;-71
2023/07/24 06:15:16;;;;;;;4.95;3.63;;;;;;;20.36;83.49;97504.13;4173498;28;20049;-71
2023/07/24 06:17:17;;;;;;;4.07;3.08;;;;;;;20.44;82.67;97502.59;4172647;28;20041;-71
2023/07/24 06:19:17;;;;;;;4.40;3.00;;;;;;;20.52;83.03;97503.06;4173418;28;20037;-72
2023/07/24 06:21:17;;;;;;;4.53;3.30;;;;;;;20.58;82.76;97522.88;4173049;28;20048;-72
2023/07/24 06:23:18;;;;;;;6.45;3.20;;;;;;;20.64;82.47;97527.41;4171949;28;20069;-71
2023/07/24 06:25:18;;;;;;;5.47;3.58;;;;;;;20.67;82.55;97515.22;4172425;28;20133;-71
2023/07/24 06:27:18;;;;;;;6.20;3.17;;;;;;;20.80;82.97;97512.25;4172145;28;20216;-71
2023/07/24 06:29:19;;;;;;;7.10;3.30;;;;;;;20.91;82.10;97506.16;4173208;28;20037;-71
2023/07/24 06:31:19;;;;;;;5.10;3.42;;;;;;;21.03;82.10;97497.53;4172712;28;20047;-71
2023/07/24 06:33:21;;;;;;;6.00;2.95;;;;;;;21.11;80.56;97491.59;4171681;28;20071;-71
2023/07/24 06:35:21;;;;;;;4.82;3.03;;;;;;;21.24;79.98;97498.56;4173295;28;20041;-71
2023/07/24 06:37:21;;;;;;;5.28;3.20;;;;;;;21.40;79.80;97497.44;4171938;28;20049;-71
2023/07/24 06:39:22;;;;;;;6.43;3.13;;;;;;;21.51;80.01;97499.75;4172017;28;20493;-71
2023/07/24 06:41:22;;;;;;;5.28;2.78;;;;;;;21.63;78.01;97490.31;4173129;28;20051;-71
2023/07/24 06:43:23;;;;;;;4.07;2.80;;;;;;;21.73;78.31;97488.25;4171950;28;20130;-72
2023/07/24 06:45:23;;;;;;;4.80;2.95;;;;;;;21.82;76.25;97477.72;4173040;28;20444;-71
2023/07/24 06:47:24;;;;;;;4.55;3.20;;;;;;;21.87;75.97;97470.66;4172782;28;20060;-72
2023/07/24 06:49:25;;;;;;;4.10;2.80;;;;;;;21.92;76.60;97477.66;4172036;28;20068;-71
2023/07/24 06:51:25;;;;;;;5.38;3.25;;;;;;;22.01;76.10;97484.03;4172547;28;20088;-71
2023/07/24 06:53:25;;;;;;;8.07;3.35;;;;;;;22.10;74.49;97480.41;4172265;28;20384;-71
2023/07/24 06:55:25;;;;;;;4.82;3.35;;;;;;;22.16;74.71;97475.66;4172756;28;20457;-71
2023/07/24 06:57:26;;;;;;;5.97;2.88;;;;;;;22.22;73.58;97481.41;4172674;28;20051;-71
2023/07/24 06:59:26;;;;;;;4.68;3.15;;;;;;;22.26;73.41;97476.34;4172533;28;20033;-71
2023/07/24 07:01:27;;;;;;;6.20;3.53;;;;;;;22.32;72.96;97480.06;4172472;28;20041;-71
2023/07/24 07:03:27;;;;;;;4.40;2.97;;;;;;;22.35;73.54;97488.38;4172142;28;20045;-71
2023/07/24 07:05:27;;;;;;;4.93;3.47;;;;;;;22.37;72.77;97491.47;4172352;28;20491;-71
2023/07/24 07:07:27;;;;;;;4.40;3.00;;;;;;;22.34;73.55;97492.44;4173345;28;20056;-71
2023/07/24 07:09:28;;;;;;;9.80;3.28;;;;;;;22.37;73.28;97494.28;4171696;28;20128;-71
2023/07/24 07:11:29;;;;;;;6.10;3.50;;;;;;;22.41;72.03;97494.09;4172044;28;20412;-72
2023/07/24 07:13:29;;;;;;;5.70;3.10;;;;;;;22.40;72.38;97490.50;4172595;28;20508;-71
2023/07/24 07:15:29;;;;;;;5.35;3.20;;;;;;;22.42;72.47;97487.19;4171937;28;20079;-71
2023/07/24 07:17:30;;;;;;;4.82;3.50;;;;;;;22.50;71.78;97485.56;4172602;28;20052;-71
2023/07/24 07:19:31;;;;;;;4.72;3.10;;;;;;;22.53;72.51;97489.47;4172051;28;20032;-71
2023/07/24 07:21:31;;;;;;;7.30;3.03;;;;;;;22.55;71.67;97482.09;4172603;28;20071;-72
2023/07/24 07:23:31;;;;;;;4.60;2.60;;;;;;;22.53;72.21;97478.19;4171792;28;20053;-71
2023/07/24 07:25:32;;;;;;;6.72;3.13;;;;;;;22.53;71.79;97473.34;4172052;28;20073;-72
2023/07/24 07:27:32;;;;;;;5.32;3.35;;;;;;;22.56;71.99;97468.78;4172874;28;20044;-71
2023/07/24 07:29:32;;;;;;;5.00;3.42;;;;;;;22.57;71.10;97476.72;4171736;28;20120;-71
2023/07/24 07:31:33;;;;;;;4.35;2.92;;;;;;;22.59;71.57;97470.59;4171776;28;20059;-71
2023/07/24 07:33:33;;;;;;;6.20;3.35;;;;;;;22.65;71.89;97474.31;4172017;28;20079;-71
2023/07/24 07:35:35;;;;;;;7.03;3.58;;;;;;;22.71;72.32;97472.41;4171884;28;20548;-71
2023/07/24 07:37:35;;;;;;;5.70;2.93;;;;;;;22.74;71.12;97479.88;4172563;28;20049;-72
2023/07/24 07:39:36;;;;;;;4.10;3.03;;;;;;;22.79;69.55;97470.75;4172200;28;20066;-72
2023/07/24 07:41:36;;;;;;;4.30;3.00;;;;;;;22.82;70.78;97466.94;4172450;28;20043;-71
2023/07/24 07:43:37;;;;;;;6.75;3.75;;;;;;;22.83;71.40;97468.50;4171740;28;20087;-71
2023/07/24 07:45:37;;;;;;;4.57;3.20;;;;;;;22.89;70.87;97472.25;4172004;28;20572;-72
2023/07/24 07:47:38;;;;;;;4.88;3.15;;;;;;;22.86;70.25;97472.44;4171705;28;20346;-72
2023/07/24 07:49:40;;;;;;;5.50;3.00;;;;;;;22.80;70.77;97465.88;4173291;28;20428;-72
2023/07/24 07:51:40;;;;;;;6.22;3.60;;;;;;;22.75;69.94;97460.91;4174644;28;20033;-72
2023/07/24 07:53:40;;;;;;;5.88;3.20;;;;;;;22.76;70.64;97460.44;4174992;28;20132;-72
2023/07/24 07:55:40;;;;;;;5.20;3.30;;;;;;;22.75;71.15;97458.88;4175547;28;20124;-72
2023/07/24 07:57:41;;;;;;;5.22;3.35;;;;;;;22.79;69.60;97462.28;4175576;28;20045;-72
2023/07/24 07:59:42;;;;;;;4.35;3.25;;;;;;;22.75;69.39;97458.09;4174637;28;20039;-72
2023/07/24 08:01:42;;;;;;;4.55;3.08;;;;;;;22.79;70.36;97451.00;4175229;28;20197;-72
2023/07/24 08:03:42;;;;;;;6.85;3.13;;;;;;;22.88;70.70;97458.63;4174615;28;20055;-72
2023/07/24 08:05:43;;;;;;;5.82;3.03;;;;;;;22.90;70.28;97451.22;4175148;28;20419;-72
2023/07/24 08:07:43;;;;;;;6.30;3.15;;;;;;;22.98;70.63;97452.41;4174692;28;20045;-72
2023/07/24 08:09:45;;;;;;;7.70;2.97;;;;;;;23.02;70.39;97449.41;4174951;28;20052;-72
2023/07/24 08:11:45;;;;;;;5.00;2.92;;;;;;;23.08;70.58;97455.13;4174908;28;20053;-72
2023/07/24 08:13:46;;;;;;;5.82;3.10;;;;;;;23.12;70.72;97452.91;4173334;28;20118;-72
2023/07/24 08:15:46;;;;;;;4.88;3.22;;;;;;;23.17;70.68;97452.19;4175380;28;20346;-72
2023/07/24 08:17:46;;;;;;;4.22;3.05;;;;;;;23.20;71.39;97443.53;4174062;28;20045;-72
2023/07/24 08:19:47;;;;;;;5.57;3.10;;;;;;;23.29;70.59;97451.13;4174470;28;20316;-72
2023/07/24 08:21:47;;;;;;;5.70;3.10;;;;;;;23.27;70.45;97448.78;4175286;28;20884;-72
2023/07/24 08:23:47;;;;;;;5.97;3.25;;;;;;;23.20;70.72;97446.38;4173921;28;20068;-72
2023/07/24 08:25:54;;;;;;;6.07;3.65;;;;;;;23.19;70.60;97449.69;4174723;28;20080;-72
2023/07/24 08:27:55;;;;;;;4.75;3.60;;;;;;;23.22;70.37;97443.81;4173832;28;20473;-72
2023/07/24 08:29:55;;;;;;;4.47;3.10;;;;;;;23.34;69.72;97439.16;4175047;28;20041;-72
2023/07/24 08:31:55;;;;;;;4.18;2.97;;;;;;;23.49;68.47;97444.75;4174409;28;20044;-72
2023/07/24 08:33:56;;;;;;;4.40;3.10;;;;;;;23.64;68.29;97436.28;4173592;28;20405;-72
2023/07/24 08:36:07;;;;;;;5.85;3.40;;;;;;;23.86;68.09;97430.94;4174504;28;20053;-72
2023/07/24 08:38:07;;;;;;;6.90;3.42;;;;;;;23.98;67.21;97435.47;4174150;28;20041;-72
2023/07/24 08:40:11;;;;;;;8.38;3.80;;;;;;;23.89;67.26;97438.44;4174822;28;20140;-72
2023/07/24 08:42:12;;;;;;;5.82;3.40;;;;;;;23.82;67.26;97438.84;4175077;28;20469;-72
2023/07/24 08:44:13;;;;;;;7.15;3.90;;;;;;;23.77;66.71;97431.09;4173542;28;20509;-72
2023/07/24 08:46:14;;;;;;;4.95;4.00;;;;;;;23.71;67.68;97433.81;4173384;28;20053;-72
2023/07/24 08:48:15;;;;;;;7.78;3.58;;;;;;;23.67;67.70;97436.09;4174560;28;20354;-72
2023/07/24 08:50:17;;;;;;;5.28;3.58;;;;;;;23.71;66.31;97447.94;4173462;28;20068;-72
2023/07/24 08:52:17;;;;;;;4.82;3.63;;;;;;;23.79;67.19;97454.72;4174322;28;20448;-72
2023/07/24 08:54:19;;;;;;;7.05;3.55;;;;;;;23.77;67.01;97448.03;4173749;28;20056;-72
2023/07/24 08:56:20;;;;;;;4.75;3.42;;;;;;;23.68;65.96;97448.94;4174256;28;20032;-72
2023/07/24 08:58:20;;;;;;;4.18;3.20;;;;;;;23.62;67.52;97458.59;4174239;28;20430;-72
2023/07/24 09:00:20;;;;;;;6.22;3.53;;;;;;;23.69;66.03;97452.53;4173557;28;20056;-72
2023/07/24 09:02:21;;;;;;;6.15;3.85;;;;;;;23.96;66.24;97449.31;4174719;28;20115;-72
2023/07/24 09:04:21;;;;;;;5.60;3.58;;;;;;;24.26;66.44;97455.63;4173784;28;20102;-72
2023/07/24 09:06:21;;;;;;;9.27;3.97;;;;;;;24.48;64.46;97448.69;4173760;28;20274;-72
2023/07/24 09:08:32;;;;;;;4.72;3.30;;;;;;;24.52;63.70;97446.44;4173401;28;20504;-72
2023/07/24 09:10:32;;;;;;;9.18;3.30;;;;;;;24.52;63.72;97457.75;4173556;28;20049;-72
2023/07/24 09:12:32;;;;;;;8.50;3.63;;;;;;;24.49;63.91;97456.66;4173418;28;20397;-72
2023/07/24 09:14:33;;;;;;;11.27;4.18;;;;;;;24.43;64.27;97447.38;4173352;28;20052;-72
2023/07/24 09:16:33;;;;;;;6.72;3.70;;;;;;;24.45;65.29;97444.81;4173207;28;20120;-72
2023/07/24 09:18:41;;;;;;;5.63;3.83;;;;;;;24.48;64.30;97443.81;4173875;28;20041;-72
2023/07/24 09:20:43;;;;;;;5.18;3.40;;;;;;;24.63;64.44;97441.66;4172814;28;20433;-72
2023/07/24 09:22:53;;;;;;;6.80;3.65;;;;;;;24.76;63.14;97434.88;4173803;28;20090;-72
2023/07/24 09:24:55;;;;;;;4.10;2.83;;;;;;;24.79;62.98;97431.03;4173898;28;20140;-72
2023/07/24 09:26:55;;;;;;;;;;;;;;;24.85;62.99;97437.53;4174997;28;20097;-72
2023/07/24 09:28:56;;;;;;;4.57;3.40;;;;;;;24.80;62.94;97427.69;4174064;28;20553;-72
2023/07/24 09:31:00;;;;;;;5.20;3.63;;;;;;;24.89;62.70;97429.56;4173354;28;20274;-72
2023/07/24 09:33:00;;;;;;;5.60;3.55;;;;;;;25.02;62.55;97420.69;4173352;28;20037;-72
2023/07/24 09:35:01;;;;;;;4.93;3.80;;;;;;;25.05;62.05;97414.06;4173771;28;20139;-72
2023/07/24 09:37:01;;;;;;;5.88;3.78;;;;;;;25.14;62.50;97411.81;4173874;28;20466;-72
2023/07/24 09:39:06;;;;;;;8.32;4.65;;;;;;;25.32;62.72;97418.38;4173607;28;20418;-72